Port Lincoln, Australia
Current Conditions -  °F | °C
As of 9:00 AM on Sunday 21 Dec 2014 (Local Time) from YWHA Reporting Station
Clear Clear  
Wind Chill: 88°   Ceiling: Unl
Heat Index: 88°   Visibility: 6mi
Dew Point: 45°   Wind: 13mph
Humidity: 22%   Direction: 350°N
Pressure: 29.85"   Gusts: NA
Location:  34.72°S, 135.86°E
Report Text: YWHA 202300Z AUTO 35011KT 9999 // NCD 31/07 Q1011
Loading
Personal Weather Stations






























Interactive Weather Map New forecast layout! Learn more

10-Day Weather Forecast

Advertisements
Track Severe Weather on mobile